Calvin, North Dakota
Current Conditions -  °F | °C
As of 8:55 PM on Sunday 23 Nov 2014 (Local Time) from KD55 Reporting Station
Light Snow Light Snow  
Wind Chill: -10°   Ceiling: 1800
Heat Index: 10°   Visibility: 9mi
Dew Point:   Wind: 24mph
Humidity: 85%   Direction: 340°NNW
Pressure: 29.6"   Gusts: NA
Location:  48.85°N, 98.94°W
Report Text: KD55 240255Z AUTO 34021KT 9SM -SN FEW009 OVC018 M12/M14 A2960 RMK AO2
Loading
Personal Weather Stations






























Interactive Weather Map New forecast layout! Learn more

10-Day Weather Forecast

Advertisements
Track Severe Weather on mobile